sensor_id;sensor_type;location;lat;lon;timestamp;P1;durP1;ratioP1;P2;durP2;ratioP2
62588;SDS011;58504;48.770;9.148;2022-11-12T00:00:05;1.63;;;1.52;;
62588;SDS011;58504;48.770;9.148;2022-11-12T00:02:32;1.40;;;1.30;;
62588;SDS011;58504;48.770;9.148;2022-11-12T00:04:59;1.80;;;1.70;;
62588;SDS011;58504;48.770;9.148;2022-11-12T00:07:26;1.70;;;1.60;;
62588;SDS011;58504;48.770;9.148;2022-11-12T00:09:53;1.50;;;1.40;;
62588;SDS011;58504;48.770;9.148;2022-11-12T00:12:21;2.20;;;1.67;;
62588;SDS011;58504;48.770;9.148;2022-11-12T00:14:47;1.70;;;1.60;;
62588;SDS011;58504;48.770;9.148;2022-11-12T00:17:14;1.67;;;1.58;;
62588;SDS011;58504;48.770;9.148;2022-11-12T00:19:41;1.50;;;1.40;;
62588;SDS011;58504;48.770;9.148;2022-11-12T00:22:08;1.30;;;1.20;;
62588;SDS011;58504;48.770;9.148;2022-11-12T00:24:34;1.77;;;1.13;;
62588;SDS011;58504;48.770;9.148;2022-11-12T00:27:01;1.80;;;1.70;;
62588;SDS011;58504;48.770;9.148;2022-11-12T00:29:29;2.25;;;1.48;;
62588;SDS011;58504;48.770;9.148;2022-11-12T00:31:56;1.65;;;1.55;;
62588;SDS011;58504;48.770;9.148;2022-11-12T00:34:23;1.67;;;1.58;;
62588;SDS011;58504;48.770;9.148;2022-11-12T00:36:49;1.63;;;1.38;;
62588;SDS011;58504;48.770;9.148;2022-11-12T00:39:16;1.55;;;1.45;;
62588;SDS011;58504;48.770;9.148;2022-11-12T00:41:43;1.90;;;1.70;;
62588;SDS011;58504;48.770;9.148;2022-11-12T00:44:10;2.65;;;1.52;;
62588;SDS011;58504;48.770;9.148;2022-11-12T00:46:38;2.30;;;1.90;;
62588;SDS011;58504;48.770;9.148;2022-11-12T00:49:04;1.58;;;1.48;;
62588;SDS011;58504;48.770;9.148;2022-11-12T00:51:31;1.70;;;1.60;;
62588;SDS011;58504;48.770;9.148;2022-11-12T00:53:58;1.80;;;1.70;;
62588;SDS011;58504;48.770;9.148;2022-11-12T00:56:25;3.92;;;1.50;;
62588;SDS011;58504;48.770;9.148;2022-11-12T00:58:52;1.65;;;1.55;;
62588;SDS011;58504;48.770;9.148;2022-11-12T01:01:18;1.65;;;1.55;;
62588;SDS011;58504;48.770;9.148;2022-11-12T01:03:47;6.18;;;1.40;;
62588;SDS011;58504;48.770;9.148;2022-11-12T01:06:15;1.55;;;1.45;;
62588;SDS011;58504;48.770;9.148;2022-11-12T01:08:43;1.65;;;1.55;;
62588;SDS011;58504;48.770;9.148;2022-11-12T01:11:11;2.20;;;2.00;;
62588;SDS011;58504;48.770;9.148;2022-11-12T01:13:41;1.80;;;1.70;;
62588;SDS011;58504;48.770;9.148;2022-11-12T01:16:09;1.67;;;1.58;;
62588;SDS011;58504;48.770;9.148;2022-11-12T01:18:38;1.70;;;1.60;;
62588;SDS011;58504;48.770;9.148;2022-11-12T01:21:06;1.98;;;1.77;;
62588;SDS011;58504;48.770;9.148;2022-11-12T01:23:34;1.77;;;1.67;;
62588;SDS011;58504;48.770;9.148;2022-11-12T01:26:02;1.38;;;1.30;;
62588;SDS011;58504;48.770;9.148;2022-11-12T01:28:30;1.67;;;1.58;;
62588;SDS011;58504;48.770;9.148;2022-11-12T01:30:57;1.83;;;1.73;;
62588;SDS011;58504;48.770;9.148;2022-11-12T01:33:23;1.90;;;1.80;;
62588;SDS011;58504;48.770;9.148;2022-11-12T01:35:50;1.67;;;1.58;;
62588;SDS011;58504;48.770;9.148;2022-11-12T01:38:18;1.70;;;1.60;;
62588;SDS011;58504;48.770;9.148;2022-11-12T01:40:45;1.60;;;1.50;;
62588;SDS011;58504;48.770;9.148;2022-11-12T01:43:14;1.77;;;1.58;;
62588;SDS011;58504;48.770;9.148;2022-11-12T01:45:42;1.35;;;1.25;;
62588;SDS011;58504;48.770;9.148;2022-11-12T01:48:18;1.52;;;1.42;;
62588;SDS011;58504;48.770;9.148;2022-11-12T01:50:50;2.60;;;1.67;;
62588;SDS011;58504;48.770;9.148;2022-11-12T01:53:19;2.60;;;1.70;;
62588;SDS011;58504;48.770;9.148;2022-11-12T01:55:48;1.70;;;1.60;;
62588;SDS011;58504;48.770;9.148;2022-11-12T01:58:16;1.70;;;1.58;;
62588;SDS011;58504;48.770;9.148;2022-11-12T02:00:45;1.50;;;1.40;;
62588;SDS011;58504;48.770;9.148;2022-11-12T02:03:14;1.92;;;1.83;;
62588;SDS011;58504;48.770;9.148;2022-11-12T02:05:44;1.40;;;1.30;;
62588;SDS011;58504;48.770;9.148;2022-11-12T02:08:13;1.67;;;1.58;;
62588;SDS011;58504;48.770;9.148;2022-11-12T02:10:42;1.88;;;1.77;;
62588;SDS011;58504;48.770;9.148;2022-11-12T02:13:09;2.15;;;1.52;;
62588;SDS011;58504;48.770;9.148;2022-11-12T02:15:53;2.00;;;1.90;;
62588;SDS011;58504;48.770;9.148;2022-11-12T02:18:21;1.70;;;1.60;;
62588;SDS011;58504;48.770;9.148;2022-11-12T02:20:51;1.58;;;1.48;;
62588;SDS011;58504;48.770;9.148;2022-11-12T02:23:21;1.70;;;1.60;;
62588;SDS011;58504;48.770;9.148;2022-11-12T02:25:48;1.65;;;1.55;;
62588;SDS011;58504;48.770;9.148;2022-11-12T02:28:15;1.30;;;1.30;;
62588;SDS011;58504;48.770;9.148;2022-11-12T02:30:44;1.63;;;1.52;;
62588;SDS011;58504;48.770;9.148;2022-11-12T02:33:12;1.50;;;1.40;;
62588;SDS011;58504;48.770;9.148;2022-11-12T02:35:39;1.63;;;1.52;;
62588;SDS011;58504;48.770;9.148;2022-11-12T02:38:06;1.65;;;1.30;;
62588;SDS011;58504;48.770;9.148;2022-11-12T02:40:35;1.25;;;1.15;;
62588;SDS011;58504;48.770;9.148;2022-11-12T02:43:02;1.60;;;1.50;;
62588;SDS011;58504;48.770;9.148;2022-11-12T02:45:29;1.63;;;1.52;;
62588;SDS011;58504;48.770;9.148;2022-11-12T02:47:56;1.58;;;1.48;;
62588;SDS011;58504;48.770;9.148;2022-11-12T02:50:23;1.60;;;1.50;;
62588;SDS011;58504;48.770;9.148;2022-11-12T02:52:50;1.73;;;1.63;;
62588;SDS011;58504;48.770;9.148;2022-11-12T02:55:16;1.85;;;1.75;;
62588;SDS011;58504;48.770;9.148;2022-11-12T02:57:45;1.85;;;1.75;;
62588;SDS011;58504;48.770;9.148;2022-11-12T03:00:12;1.40;;;1.40;;
62588;SDS011;58504;48.770;9.148;2022-11-12T03:02:39;1.70;;;1.60;;
62588;SDS011;58504;48.770;9.148;2022-11-12T03:05:07;1.70;;;1.60;;
62588;SDS011;58504;48.770;9.148;2022-11-12T03:07:35;1.45;;;1.35;;
62588;SDS011;58504;48.770;9.148;2022-11-12T03:10:01;1.90;;;1.80;;
62588;SDS011;58504;48.770;9.148;2022-11-12T03:12:29;1.50;;;1.40;;
62588;SDS011;58504;48.770;9.148;2022-11-12T03:14:57;1.48;;;1.38;;
62588;SDS011;58504;48.770;9.148;2022-11-12T03:17:24;1.52;;;1.42;;
62588;SDS011;58504;48.770;9.148;2022-11-12T03:19:51;1.50;;;1.40;;
62588;SDS011;58504;48.770;9.148;2022-11-12T03:22:18;1.50;;;1.40;;
62588;SDS011;58504;48.770;9.148;2022-11-12T03:24:44;1.70;;;1.60;;
62588;SDS011;58504;48.770;9.148;2022-11-12T03:27:11;1.73;;;1.63;;
62588;SDS011;58504;48.770;9.148;2022-11-12T03:29:38;1.60;;;1.50;;
62588;SDS011;58504;48.770;9.148;2022-11-12T03:32:06;1.10;;;1.05;;
62588;SDS011;58504;48.770;9.148;2022-11-12T03:34:33;1.77;;;1.67;;
62588;SDS011;58504;48.770;9.148;2022-11-12T03:37:00;1.40;;;1.30;;
62588;SDS011;58504;48.770;9.148;2022-11-12T03:39:27;1.55;;;1.45;;
62588;SDS011;58504;48.770;9.148;2022-11-12T03:41:53;1.13;;;1.13;;
62588;SDS011;58504;48.770;9.148;2022-11-12T03:44:20;1.60;;;1.50;;
62588;SDS011;58504;48.770;9.148;2022-11-12T03:46:47;1.65;;;1.55;;
62588;SDS011;58504;48.770;9.148;2022-11-12T03:49:15;1.55;;;1.45;;
62588;SDS011;58504;48.770;9.148;2022-11-12T03:51:42;1.48;;;1.38;;
62588;SDS011;58504;48.770;9.148;2022-11-12T03:54:08;1.40;;;1.30;;
62588;SDS011;58504;48.770;9.148;2022-11-12T03:56:35;1.65;;;1.55;;
62588;SDS011;58504;48.770;9.148;2022-11-12T03:59:02;1.52;;;1.42;;
62588;SDS011;58504;48.770;9.148;2022-11-12T04:01:29;1.83;;;1.73;;
62588;SDS011;58504;48.770;9.148;2022-11-12T04:03:56;1.60;;;1.50;;
62588;SDS011;58504;48.770;9.148;2022-11-12T04:06:24;1.20;;;1.20;;
62588;SDS011;58504;48.770;9.148;2022-11-12T04:09:08;1.52;;;1.42;;
62588;SDS011;58504;48.770;9.148;2022-11-12T04:11:35;1.33;;;1.23;;
62588;SDS011;58504;48.770;9.148;2022-11-12T04:14:02;6.63;;;1.40;;
62588;SDS011;58504;48.770;9.148;2022-11-12T04:16:27;1.35;;;1.33;;
62588;SDS011;58504;48.770;9.148;2022-11-12T04:19:12;1.27;;;1.17;;
62588;SDS011;58504;48.770;9.148;2022-11-12T04:21:59;1.42;;;1.33;;
62588;SDS011;58504;48.770;9.148;2022-11-12T04:24:28;1.42;;;1.42;;
62588;SDS011;58504;48.770;9.148;2022-11-12T04:27:14;1.38;;;1.27;;
62588;SDS011;58504;48.770;9.148;2022-11-12T04:29:43;1.48;;;1.38;;
62588;SDS011;58504;48.770;9.148;2022-11-12T04:32:29;1.60;;;1.50;;
62588;SDS011;58504;48.770;9.148;2022-11-12T04:34:56;1.50;;;1.40;;
62588;SDS011;58504;48.770;9.148;2022-11-12T04:37:25;1.30;;;1.25;;
62588;SDS011;58504;48.770;9.148;2022-11-12T04:39:54;1.30;;;1.27;;
62588;SDS011;58504;48.770;9.148;2022-11-12T04:42:40;1.30;;;1.20;;
62588;SDS011;58504;48.770;9.148;2022-11-12T04:45:21;1.63;;;1.52;;
62588;SDS011;58504;48.770;9.148;2022-11-12T04:47:48;1.17;;;1.17;;
62588;SDS011;58504;48.770;9.148;2022-11-12T04:50:16;1.65;;;1.55;;
62588;SDS011;58504;48.770;9.148;2022-11-12T04:52:45;1.08;;;1.08;;
62588;SDS011;58504;48.770;9.148;2022-11-12T04:55:12;1.48;;;1.38;;
62588;SDS011;58504;48.770;9.148;2022-11-12T04:57:38;1.42;;;1.38;;
62588;SDS011;58504;48.770;9.148;2022-11-12T05:00:06;1.15;;;1.08;;
62588;SDS011;58504;48.770;9.148;2022-11-12T05:02:33;1.35;;;1.35;;
62588;SDS011;58504;48.770;9.148;2022-11-12T05:05:00;1.23;;;1.20;;
62588;SDS011;58504;48.770;9.148;2022-11-12T05:07:27;1.60;;;1.50;;
62588;SDS011;58504;48.770;9.148;2022-11-12T05:09:55;1.42;;;1.33;;
62588;SDS011;58504;48.770;9.148;2022-11-12T05:12:21;1.50;;;1.40;;
62588;SDS011;58504;48.770;9.148;2022-11-12T05:14:48;1.13;;;1.13;;
62588;SDS011;58504;48.770;9.148;2022-11-12T05:17:15;1.20;;;1.20;;
62588;SDS011;58504;48.770;9.148;2022-11-12T05:19:42;0.95;;;0.95;;
62588;SDS011;58504;48.770;9.148;2022-11-12T05:22:09;1.65;;;1.55;;
62588;SDS011;58504;48.770;9.148;2022-11-12T05:24:36;1.02;;;1.02;;
62588;SDS011;58504;48.770;9.148;2022-11-12T05:27:07;1.25;;;1.25;;
62588;SDS011;58504;48.770;9.148;2022-11-12T05:29:36;1.23;;;1.20;;
62588;SDS011;58504;48.770;9.148;2022-11-12T05:32:03;1.27;;;1.20;;
62588;SDS011;58504;48.770;9.148;2022-11-12T05:34:30;1.40;;;1.30;;
62588;SDS011;58504;48.770;9.148;2022-11-12T05:36:57;1.10;;;1.10;;
62588;SDS011;58504;48.770;9.148;2022-11-12T05:39:24;1.10;;;1.00;;
62588;SDS011;58504;48.770;9.148;2022-11-12T05:41:51;1.50;;;1.40;;
62588;SDS011;58504;48.770;9.148;2022-11-12T05:44:20;1.38;;;1.38;;
62588;SDS011;58504;48.770;9.148;2022-11-12T05:46:47;1.02;;;1.02;;
62588;SDS011;58504;48.770;9.148;2022-11-12T05:49:15;1.17;;;1.17;;
62588;SDS011;58504;48.770;9.148;2022-11-12T05:51:42;1.50;;;1.40;;
62588;SDS011;58504;48.770;9.148;2022-11-12T05:54:09;1.67;;;1.58;;
62588;SDS011;58504;48.770;9.148;2022-11-12T05:56:37;1.40;;;1.23;;
62588;SDS011;58504;48.770;9.148;2022-11-12T05:59:05;1.23;;;1.20;;
62588;SDS011;58504;48.770;9.148;2022-11-12T06:01:34;1.48;;;1.38;;
62588;SDS011;58504;48.770;9.148;2022-11-12T06:04:07;1.15;;;1.15;;
62588;SDS011;58504;48.770;9.148;2022-11-12T06:06:34;0.93;;;0.93;;
62588;SDS011;58504;48.770;9.148;2022-11-12T06:09:01;1.08;;;1.08;;
62588;SDS011;58504;48.770;9.148;2022-11-12T06:11:28;1.10;;;1.10;;
62588;SDS011;58504;48.770;9.148;2022-11-12T06:13:55;1.10;;;1.10;;
62588;SDS011;58504;48.770;9.148;2022-11-12T06:16:22;1.00;;;1.00;;
62588;SDS011;58504;48.770;9.148;2022-11-12T06:18:50;1.33;;;1.23;;
62588;SDS011;58504;48.770;9.148;2022-11-12T06:21:16;1.08;;;1.08;;
62588;SDS011;58504;48.770;9.148;2022-11-12T06:23:47;1.20;;;1.20;;
62588;SDS011;58504;48.770;9.148;2022-11-12T06:26:15;1.02;;;1.02;;
62588;SDS011;58504;48.770;9.148;2022-11-12T06:28:42;1.08;;;1.08;;
62588;SDS011;58504;48.770;9.148;2022-11-12T06:31:10;1.00;;;1.00;;
62588;SDS011;58504;48.770;9.148;2022-11-12T06:33:37;1.05;;;1.05;;
62588;SDS011;58504;48.770;9.148;2022-11-12T06:36:06;0.98;;;0.88;;
62588;SDS011;58504;48.770;9.148;2022-11-12T06:38:35;1.00;;;1.00;;
62588;SDS011;58504;48.770;9.148;2022-11-12T06:41:04;1.40;;;1.33;;
62588;SDS011;58504;48.770;9.148;2022-11-12T06:43:32;1.20;;;1.20;;
62588;SDS011;58504;48.770;9.148;2022-11-12T06:45:59;1.00;;;1.00;;
62588;SDS011;58504;48.770;9.148;2022-11-12T06:48:26;0.80;;;0.80;;
62588;SDS011;58504;48.770;9.148;2022-11-12T06:50:54;0.90;;;0.90;;
62588;SDS011;58504;48.770;9.148;2022-11-12T06:53:22;0.88;;;0.88;;
62588;SDS011;58504;48.770;9.148;2022-11-12T06:55:49;1.13;;;1.08;;
62588;SDS011;58504;48.770;9.148;2022-11-12T06:58:16;1.00;;;1.00;;
62588;SDS011;58504;48.770;9.148;2022-11-12T07:00:43;0.90;;;0.90;;
62588;SDS011;58504;48.770;9.148;2022-11-12T07:03:11;0.98;;;0.98;;
62588;SDS011;58504;48.770;9.148;2022-11-12T07:05:39;1.02;;;1.02;;
62588;SDS011;58504;48.770;9.148;2022-11-12T07:08:05;1.10;;;1.00;;
62588;SDS011;58504;48.770;9.148;2022-11-12T07:10:33;0.80;;;0.80;;
62588;SDS011;58504;48.770;9.148;2022-11-12T07:13:00;0.65;;;0.65;;
62588;SDS011;58504;48.770;9.148;2022-11-12T07:15:27;0.90;;;0.90;;
62588;SDS011;58504;48.770;9.148;2022-11-12T07:17:54;0.82;;;0.82;;
62588;SDS011;58504;48.770;9.148;2022-11-12T07:20:20;0.70;;;0.70;;
62588;SDS011;58504;48.770;9.148;2022-11-12T07:22:47;0.85;;;0.85;;
62588;SDS011;58504;48.770;9.148;2022-11-12T07:25:14;0.88;;;0.88;;
62588;SDS011;58504;48.770;9.148;2022-11-12T07:27:42;2.05;;;0.93;;
62588;SDS011;58504;48.770;9.148;2022-11-12T07:30:09;1.60;;;1.02;;
62588;SDS011;58504;48.770;9.148;2022-11-12T07:32:37;1.15;;;1.15;;
62588;SDS011;58504;48.770;9.148;2022-11-12T07:35:04;0.73;;;0.73;;
62588;SDS011;58504;48.770;9.148;2022-11-12T07:37:32;0.60;;;0.60;;
62588;SDS011;58504;48.770;9.148;2022-11-12T07:40:00;0.80;;;0.80;;
62588;SDS011;58504;48.770;9.148;2022-11-12T07:42:27;1.00;;;1.00;;
62588;SDS011;58504;48.770;9.148;2022-11-12T07:44:55;0.85;;;0.85;;
62588;SDS011;58504;48.770;9.148;2022-11-12T07:47:22;0.80;;;0.80;;
62588;SDS011;58504;48.770;9.148;2022-11-12T07:49:49;0.70;;;0.70;;
62588;SDS011;58504;48.770;9.148;2022-11-12T07:52:15;0.80;;;0.80;;
62588;SDS011;58504;48.770;9.148;2022-11-12T07:54:42;0.70;;;0.70;;
62588;SDS011;58504;48.770;9.148;2022-11-12T07:57:09;0.80;;;0.80;;
62588;SDS011;58504;48.770;9.148;2022-11-12T07:59:36;0.88;;;0.88;;
62588;SDS011;58504;48.770;9.148;2022-11-12T08:02:04;0.80;;;0.80;;
62588;SDS011;58504;48.770;9.148;2022-11-12T08:04:33;1.25;;;1.17;;
62588;SDS011;58504;48.770;9.148;2022-11-12T08:07:00;0.73;;;0.73;;
62588;SDS011;58504;48.770;9.148;2022-11-12T08:09:27;1.00;;;1.00;;
62588;SDS011;58504;48.770;9.148;2022-11-12T08:11:54;1.23;;;1.17;;
62588;SDS011;58504;48.770;9.148;2022-11-12T08:14:20;1.40;;;1.30;;
62588;SDS011;58504;48.770;9.148;2022-11-12T08:16:48;1.17;;;1.15;;
62588;SDS011;58504;48.770;9.148;2022-11-12T08:19:16;0.98;;;0.98;;
62588;SDS011;58504;48.770;9.148;2022-11-12T08:21:43;1.45;;;1.35;;
62588;SDS011;58504;48.770;9.148;2022-11-12T08:24:10;1.10;;;1.10;;
62588;SDS011;58504;48.770;9.148;2022-11-12T08:26:37;0.85;;;0.85;;
62588;SDS011;58504;48.770;9.148;2022-11-12T08:29:04;1.05;;;1.05;;
62588;SDS011;58504;48.770;9.148;2022-11-12T08:31:30;1.70;;;1.60;;
62588;SDS011;58504;48.770;9.148;2022-11-12T08:33:57;1.38;;;1.27;;
62588;SDS011;58504;48.770;9.148;2022-11-12T08:36:37;1.30;;;1.20;;
62588;SDS011;58504;48.770;9.148;2022-11-12T08:39:05;1.33;;;1.23;;
62588;SDS011;58504;48.770;9.148;2022-11-12T08:41:32;1.40;;;1.30;;
62588;SDS011;58504;48.770;9.148;2022-11-12T08:43:59;1.40;;;1.30;;
62588;SDS011;58504;48.770;9.148;2022-11-12T08:46:26;1.63;;;1.40;;
62588;SDS011;58504;48.770;9.148;2022-11-12T08:48:53;1.05;;;1.05;;
62588;SDS011;58504;48.770;9.148;2022-11-12T08:51:20;1.80;;;1.70;;
62588;SDS011;58504;48.770;9.148;2022-11-12T08:53:48;1.50;;;1.40;;
62588;SDS011;58504;48.770;9.148;2022-11-12T08:56:14;1.65;;;1.15;;
62588;SDS011;58504;48.770;9.148;2022-11-12T08:58:41;1.42;;;1.33;;
62588;SDS011;58504;48.770;9.148;2022-11-12T09:01:08;1.42;;;1.33;;
62588;SDS011;58504;48.770;9.148;2022-11-12T09:03:35;2.00;;;1.50;;
62588;SDS011;58504;48.770;9.148;2022-11-12T09:06:02;2.03;;;1.40;;
62588;SDS011;58504;48.770;9.148;2022-11-12T09:08:31;1.45;;;1.35;;
62588;SDS011;58504;48.770;9.148;2022-11-12T09:11:01;1.42;;;1.33;;
62588;SDS011;58504;48.770;9.148;2022-11-12T09:13:28;2.00;;;1.80;;
62588;SDS011;58504;48.770;9.148;2022-11-12T09:15:59;1.65;;;1.55;;
62588;SDS011;58504;48.770;9.148;2022-11-12T09:18:27;2.17;;;1.98;;
62588;SDS011;58504;48.770;9.148;2022-11-12T09:20:57;2.05;;;1.88;;
62588;SDS011;58504;48.770;9.148;2022-11-12T09:23:25;1.92;;;1.83;;
62588;SDS011;58504;48.770;9.148;2022-11-12T09:25:53;1.70;;;1.60;;
62588;SDS011;58504;48.770;9.148;2022-11-12T09:28:22;1.70;;;1.60;;
62588;SDS011;58504;48.770;9.148;2022-11-12T09:30:50;1.95;;;1.83;;
62588;SDS011;58504;48.770;9.148;2022-11-12T09:33:18;1.63;;;1.52;;
62588;SDS011;58504;48.770;9.148;2022-11-12T09:35:46;1.80;;;1.70;;
62588;SDS011;58504;48.770;9.148;2022-11-12T09:38:13;1.83;;;1.73;;
62588;SDS011;58504;48.770;9.148;2022-11-12T09:40:45;1.65;;;1.55;;
62588;SDS011;58504;48.770;9.148;2022-11-12T09:43:22;1.70;;;1.52;;
62588;SDS011;58504;48.770;9.148;2022-11-12T09:45:54;1.67;;;1.58;;
62588;SDS011;58504;48.770;9.148;2022-11-12T09:48:23;2.15;;;1.95;;
62588;SDS011;58504;48.770;9.148;2022-11-12T09:50:55;2.22;;;2.05;;
62588;SDS011;58504;48.770;9.148;2022-11-12T09:53:26;5.60;;;1.63;;
62588;SDS011;58504;48.770;9.148;2022-11-12T09:56:00;1.80;;;1.70;;
62588;SDS011;58504;48.770;9.148;2022-11-12T09:58:33;4.05;;;2.17;;
62588;SDS011;58504;48.770;9.148;2022-11-12T10:01:01;2.55;;;2.35;;
62588;SDS011;58504;48.770;9.148;2022-11-12T10:03:37;1.70;;;1.60;;
62588;SDS011;58504;48.770;9.148;2022-11-12T10:06:15;2.05;;;1.90;;
62588;SDS011;58504;48.770;9.148;2022-11-12T10:08:45;2.28;;;1.88;;
62588;SDS011;58504;48.770;9.148;2022-11-12T10:14:32;1.95;;;1.77;;
62588;SDS011;58504;48.770;9.148;2022-11-12T10:17:14;1.90;;;1.67;;
62588;SDS011;58504;48.770;9.148;2022-11-12T10:19:48;2.75;;;1.92;;
62588;SDS011;58504;48.770;9.148;2022-11-12T10:22:31;2.00;;;1.88;;
62588;SDS011;58504;48.770;9.148;2022-11-12T10:25:09;2.15;;;2.05;;
62588;SDS011;58504;48.770;9.148;2022-11-12T10:27:40;1.90;;;1.80;;
62588;SDS011;58504;48.770;9.148;2022-11-12T10:30:13;3.70;;;1.95;;
62588;SDS011;58504;48.770;9.148;2022-11-12T10:32:42;1.92;;;1.80;;
62588;SDS011;58504;48.770;9.148;2022-11-12T10:35:11;1.85;;;1.70;;
62588;SDS011;58504;48.770;9.148;2022-11-12T10:37:41;2.55;;;1.75;;
62588;SDS011;58504;48.770;9.148;2022-11-12T10:42:59;2.00;;;1.90;;
62588;SDS011;58504;48.770;9.148;2022-11-12T10:45:28;3.67;;;2.10;;
62588;SDS011;58504;48.770;9.148;2022-11-12T10:47:56;1.90;;;1.80;;
62588;SDS011;58504;48.770;9.148;2022-11-12T10:50:24;1.90;;;1.80;;
62588;SDS011;58504;48.770;9.148;2022-11-12T10:52:55;2.65;;;2.35;;
62588;SDS011;58504;48.770;9.148;2022-11-12T10:55:24;2.33;;;1.75;;
62588;SDS011;58504;48.770;9.148;2022-11-12T10:58:03;1.65;;;1.55;;
62588;SDS011;58504;48.770;9.148;2022-11-12T11:00:52;1.58;;;1.45;;
62588;SDS011;58504;48.770;9.148;2022-11-12T11:03:21;2.97;;;1.30;;
62588;SDS011;58504;48.770;9.148;2022-11-12T11:05:51;1.63;;;1.52;;
62588;SDS011;58504;48.770;9.148;2022-11-12T11:08:34;1.60;;;1.50;;
62588;SDS011;58504;48.770;9.148;2022-11-12T11:11:19;1.33;;;1.30;;
62588;SDS011;58504;48.770;9.148;2022-11-12T11:13:50;3.63;;;1.48;;
62588;SDS011;58504;48.770;9.148;2022-11-12T11:16:21;1.50;;;1.40;;
62588;SDS011;58504;48.770;9.148;2022-11-12T11:18:50;1.67;;;1.58;;
62588;SDS011;58504;48.770;9.148;2022-11-12T11:21:23;1.98;;;1.70;;
62588;SDS011;58504;48.770;9.148;2022-11-12T11:24:14;4.00;;;1.70;;
62588;SDS011;58504;48.770;9.148;2022-11-12T11:26:53;2.40;;;2.17;;
62588;SDS011;58504;48.770;9.148;2022-11-12T11:29:29;2.13;;;1.75;;
62588;SDS011;58504;48.770;9.148;2022-11-12T11:32:12;8.32;;;2.10;;
62588;SDS011;58504;48.770;9.148;2022-11-12T11:34:48;1.38;;;1.25;;
62588;SDS011;58504;48.770;9.148;2022-11-12T11:37:23;1.73;;;1.63;;
62588;SDS011;58504;48.770;9.148;2022-11-12T11:39:54;2.15;;;1.80;;
62588;SDS011;58504;48.770;9.148;2022-11-12T11:45:31;1.40;;;1.30;;
62588;SDS011;58504;48.770;9.148;2022-11-12T11:48:16;1.77;;;1.38;;
62588;SDS011;58504;48.770;9.148;2022-11-12T11:50:54;3.13;;;1.65;;
62588;SDS011;58504;48.770;9.148;2022-11-12T11:53:25;1.38;;;1.27;;
62588;SDS011;58504;48.770;9.148;2022-11-12T11:55:56;1.58;;;1.48;;
62588;SDS011;58504;48.770;9.148;2022-11-12T11:58:31;2.70;;;1.70;;
62588;SDS011;58504;48.770;9.148;2022-11-12T12:01:16;1.90;;;1.80;;
62588;SDS011;58504;48.770;9.148;2022-11-12T12:03:52;3.85;;;1.75;;
62588;SDS011;58504;48.770;9.148;2022-11-12T12:06:33;3.08;;;1.50;;
62588;SDS011;58504;48.770;9.148;2022-11-12T12:09:07;1.65;;;1.55;;
62588;SDS011;58504;48.770;9.148;2022-11-12T12:11:48;1.30;;;1.20;;
62588;SDS011;58504;48.770;9.148;2022-11-12T12:14:24;1.90;;;1.70;;
62588;SDS011;58504;48.770;9.148;2022-11-12T12:17:02;3.92;;;1.90;;
62588;SDS011;58504;48.770;9.148;2022-11-12T12:19:49;1.38;;;1.23;;
62588;SDS011;58504;48.770;9.148;2022-11-12T12:22:23;2.05;;;1.50;;
62588;SDS011;58504;48.770;9.148;2022-11-12T12:24:57;1.75;;;1.55;;
62588;SDS011;58504;48.770;9.148;2022-11-12T12:27:29;6.53;;;2.33;;
62588;SDS011;58504;48.770;9.148;2022-11-12T12:30:00;1.45;;;1.35;;
62588;SDS011;58504;48.770;9.148;2022-11-12T12:32:30;1.63;;;1.52;;
62588;SDS011;58504;48.770;9.148;2022-11-12T12:35:05;3.60;;;2.13;;
62588;SDS011;58504;48.770;9.148;2022-11-12T12:37:47;3.25;;;2.10;;
62588;SDS011;58504;48.770;9.148;2022-11-12T12:40:20;1.88;;;1.58;;
62588;SDS011;58504;48.770;9.148;2022-11-12T12:42:52;1.83;;;1.73;;
62588;SDS011;58504;48.770;9.148;2022-11-12T12:45:25;2.15;;;1.85;;
62588;SDS011;58504;48.770;9.148;2022-11-12T12:47:59;2.15;;;1.70;;
62588;SDS011;58504;48.770;9.148;2022-11-12T12:50:28;1.83;;;1.67;;
62588;SDS011;58504;48.770;9.148;2022-11-12T12:52:59;1.98;;;1.88;;
62588;SDS011;58504;48.770;9.148;2022-11-12T12:55:35;1.63;;;1.52;;
62588;SDS011;58504;48.770;9.148;2022-11-12T12:58:04;1.90;;;1.80;;
62588;SDS011;58504;48.770;9.148;2022-11-12T13:00:40;2.17;;;1.83;;
62588;SDS011;58504;48.770;9.148;2022-11-12T13:03:13;1.88;;;1.77;;
62588;SDS011;58504;48.770;9.148;2022-11-12T13:06:14;1.90;;;1.80;;
62588;SDS011;58504;48.770;9.148;2022-11-12T13:08:48;1.83;;;1.73;;
62588;SDS011;58504;48.770;9.148;2022-11-12T13:17:48;1.60;;;1.50;;
62588;SDS011;58504;48.770;9.148;2022-11-12T13:20:24;1.35;;;1.25;;
62588;SDS011;58504;48.770;9.148;2022-11-12T13:23:03;1.70;;;1.60;;
62588;SDS011;58504;48.770;9.148;2022-11-12T13:25:35;1.60;;;1.50;;
62588;SDS011;58504;48.770;9.148;2022-11-12T13:28:04;2.08;;;1.75;;
62588;SDS011;58504;48.770;9.148;2022-11-12T13:30:58;1.98;;;1.40;;
62588;SDS011;58504;48.770;9.148;2022-11-12T13:33:29;2.05;;;1.85;;
62588;SDS011;58504;48.770;9.148;2022-11-12T13:38:52;1.67;;;1.55;;
62588;SDS011;58504;48.770;9.148;2022-11-12T13:41:21;2.40;;;1.75;;
62588;SDS011;58504;48.770;9.148;2022-11-12T13:44:03;1.93;;;1.80;;
62588;SDS011;58504;48.770;9.148;2022-11-12T13:46:33;1.55;;;1.45;;
62588;SDS011;58504;48.770;9.148;2022-11-12T13:49:00;1.73;;;1.63;;
62588;SDS011;58504;48.770;9.148;2022-11-12T13:51:36;2.05;;;1.90;;
62588;SDS011;58504;48.770;9.148;2022-11-12T13:54:24;1.40;;;1.30;;
62588;SDS011;58504;48.770;9.148;2022-11-12T13:57:11;1.70;;;1.60;;
62588;SDS011;58504;48.770;9.148;2022-11-12T13:59:49;1.70;;;1.60;;
62588;SDS011;58504;48.770;9.148;2022-11-12T14:02:32;2.55;;;1.67;;
62588;SDS011;58504;48.770;9.148;2022-11-12T14:04:59;2.35;;;1.92;;
62588;SDS011;58504;48.770;9.148;2022-11-12T14:07:30;1.52;;;1.38;;
62588;SDS011;58504;48.770;9.148;2022-11-12T14:10:08;3.90;;;1.50;;
62588;SDS011;58504;48.770;9.148;2022-11-12T14:12:47;1.83;;;1.73;;
62588;SDS011;58504;48.770;9.148;2022-11-12T14:15:29;1.70;;;1.60;;
62588;SDS011;58504;48.770;9.148;2022-11-12T14:18:08;2.50;;;1.70;;
62588;SDS011;58504;48.770;9.148;2022-11-12T14:20:42;1.80;;;1.70;;
62588;SDS011;58504;48.770;9.148;2022-11-12T14:23:10;1.67;;;1.58;;
62588;SDS011;58504;48.770;9.148;2022-11-12T14:25:46;1.50;;;1.40;;
62588;SDS011;58504;48.770;9.148;2022-11-12T14:28:25;1.65;;;1.55;;
62588;SDS011;58504;48.770;9.148;2022-11-12T14:30:54;1.45;;;1.35;;
62588;SDS011;58504;48.770;9.148;2022-11-12T14:33:22;1.98;;;1.75;;
62588;SDS011;58504;48.770;9.148;2022-11-12T14:35:50;1.95;;;1.63;;
62588;SDS011;58504;48.770;9.148;2022-11-12T14:38:19;1.63;;;1.52;;
62588;SDS011;58504;48.770;9.148;2022-11-12T14:40:49;1.48;;;1.38;;
62588;SDS011;58504;48.770;9.148;2022-11-12T14:43:20;1.90;;;1.58;;
62588;SDS011;58504;48.770;9.148;2022-11-12T14:45:50;1.48;;;1.38;;
62588;SDS011;58504;48.770;9.148;2022-11-12T14:48:19;1.48;;;1.15;;
62588;SDS011;58504;48.770;9.148;2022-11-12T14:50:46;1.92;;;1.50;;
62588;SDS011;58504;48.770;9.148;2022-11-12T14:53:18;2.58;;;1.77;;
62588;SDS011;58504;48.770;9.148;2022-11-12T14:55:50;1.50;;;1.40;;
62588;SDS011;58504;48.770;9.148;2022-11-12T14:58:19;1.88;;;1.77;;
62588;SDS011;58504;48.770;9.148;2022-11-12T15:00:49;2.47;;;2.17;;
62588;SDS011;58504;48.770;9.148;2022-11-12T15:03:17;1.05;;;1.05;;
62588;SDS011;58504;48.770;9.148;2022-11-12T15:05:55;1.60;;;1.50;;
62588;SDS011;58504;48.770;9.148;2022-11-12T15:08:27;1.60;;;1.50;;
62588;SDS011;58504;48.770;9.148;2022-11-12T15:13:50;1.33;;;1.30;;
62588;SDS011;58504;48.770;9.148;2022-11-12T15:16:21;1.55;;;1.45;;
62588;SDS011;58504;48.770;9.148;2022-11-12T15:19:05;1.67;;;1.35;;
62588;SDS011;58504;48.770;9.148;2022-11-12T15:21:45;1.63;;;1.50;;
62588;SDS011;58504;48.770;9.148;2022-11-12T15:24:17;1.45;;;1.35;;
62588;SDS011;58504;48.770;9.148;2022-11-12T15:26:53;1.38;;;1.27;;